Time;durP1;ratioP1;P1;durP2;ratioP2;P2;SDS_P1;SDS_P2;PMS_P1;PMS_P2;Temp;Humidity;BMP_temperature;BMP_pressure;BME280_temperature;BME280_humidity;BME280_pressure;Samples;Min_cycle;Max_cycle;Signal;HPM_P1;HPM_P2
2023/08/01 05:07:52;;;;;;;4.90;3.80;;;;;;;18.72;64.89;99446.80;212273;1279;61103;-73
2023/08/01 05:12:49;;;;;;;6.40;3.50;;;;;;;18.93;64.74;99446.04;212304;1280;67203;-74
2023/08/01 05:18:06;;;;;;;5.90;3.40;;;;;;;19.16;64.50;99437.80;212306;1279;60571;-73
2023/08/01 05:23:15;;;;;;;3.60;3.30;;;;;;;19.38;63.89;99428.67;212479;1275;74614;-73
2023/08/01 05:33:57;;;;;;;4.10;3.50;;;;;;;19.70;63.03;99415.27;214953;1259;60407;-73
2023/08/01 05:39:18;;;;;;;4.30;3.20;;;;;;;19.91;62.62;99410.91;215492;1255;66314;-73
2023/08/01 05:44:48;;;;;;;6.90;3.30;;;;;;;20.41;62.39;99408.21;215687;1254;61536;-74
2023/08/01 05:50:06;;;;;;;4.60;2.90;;;;;;;20.65;61.31;99404.92;215608;1255;72920;-73
2023/08/01 05:55:21;;;;;;;4.10;3.40;;;;;;;20.65;60.87;99405.63;215660;1255;72871;-73
2023/08/01 06:00:30;;;;;;;3.30;3.00;;;;;;;20.55;60.73;99400.93;215620;1257;60656;-74
2023/08/01 06:06:02;;;;;;;5.30;2.80;;;;;;;20.64;60.36;99396.14;215566;1255;67152;-73
2023/08/01 06:11:30;;;;;;;3.90;3.00;;;;;;;20.92;60.19;99390.81;214754;1260;60689;-73
2023/08/01 06:47:23;;;;;;;5.60;3.10;;;;;;;21.41;58.74;99366.27;212195;1275;71781;-73
2023/08/01 06:59:25;;;;;;;;;;;;;;;;;;;;;
2023/08/01 07:31:11;;;;;;;3.40;2.60;;;;;;;24.22;54.82;99320.66;214375;1265;67755;-74
2023/08/01 07:36:24;;;;;;;5.10;3.00;;;;;;;24.47;54.30;99319.31;214592;1261;60526;-74
2023/08/01 07:54:43;;;;;;;4.00;2.60;;;;;;;25.48;51.72;99294.73;213781;1272;60483;-73
2023/08/01 08:06:06;;;;;;;2.90;2.60;;;;;;;26.20;50.47;99295.67;214071;1267;61346;-73
2023/08/01 08:10:59;;;;;;;2.60;2.40;;;;;;;26.14;50.72;99285.95;214139;1268;72141;-73
2023/08/01 08:15:55;;;;;;;5.70;2.60;;;;;;;26.45;50.55;99276.14;214231;1265;60495;-73
2023/08/01 08:20:49;;;;;;;;;;;;;;;26.46;50.79;99271.80;214141;1268;60678;-73
2023/08/01 08:25:46;;;;;;;5.50;3.00;;;;;;;26.33;50.32;99261.88;214683;1262;67061;-73
2023/08/01 08:30:40;;;;;;;3.90;3.10;;;;;;;26.11;50.76;99259.55;215555;1256;60466;-74
2023/08/01 08:35:35;;;;;;;3.20;2.90;;;;;;;25.78;50.77;99255.63;215839;1258;73577;-73
2023/08/01 08:40:31;;;;;;;3.60;3.20;;;;;;;25.61;51.36;99257.35;215728;1256;72385;-73
2023/08/01 08:58:55;;;;;;;3.50;3.20;;;;;;;25.29;52.03;99242.98;213373;1272;60611;-73
2023/08/01 09:04:39;;;;;;;4.80;2.90;;;;;;;24.96;51.84;99236.42;213733;1275;73844;-73
2023/08/01 09:09:36;;;;;;;6.80;3.50;;;;;;;24.59;52.09;99230.50;213587;1271;70920;-73
2023/08/01 09:14:39;;;;;;;6.00;3.60;;;;;;;24.36;52.42;99234.46;213741;1271;62303;-73
2023/08/01 09:19:32;;;;;;;2.80;2.50;;;;;;;24.27;52.70;99229.20;213653;1270;60478;-73
2023/08/01 09:24:25;;;;;;;3.10;2.40;;;;;;;24.24;52.92;99220.50;213855;1266;60550;-73
2023/08/01 09:29:20;;;;;;;4.40;3.20;;;;;;;24.16;53.17;99222.94;214277;1264;60477;-73
2023/08/01 09:40:41;;;;;;;7.10;3.30;;;;;;;24.10;53.40;99226.55;215504;1258;60451;-74
2023/08/01 09:46:44;;;;;;;;;;;;;;;;;;;;;
2023/08/01 10:24:47;;;;;;;3.90;2.90;;;;;;;25.33;52.20;99203.14;214075;1272;60488;-73
2023/08/01 10:42:55;;;;;;;3.30;2.60;;;;;;;24.46;52.70;99206.23;212998;1273;60485;-73
2023/08/01 11:19:12;;;;;;;;;;;;;;;22.79;59.73;99209.21;212561;1274;65875;-73
2023/08/01 11:24:11;;;;;;;4.30;3.90;;;;;;;22.83;59.99;99204.70;212673;1275;61222;-72
2023/08/01 11:29:09;;;;;;;5.50;3.70;;;;;;;22.80;60.36;99205.94;213266;1270;74083;-73
2023/08/01 11:34:09;;;;;;;4.00;3.60;;;;;;;22.85;61.07;99203.38;213912;1270;74181;-73
2023/08/01 11:45:19;;;;;;;4.70;3.60;;;;;;;22.92;61.56;99202.07;213912;1262;66519;-72
2023/08/01 11:50:34;;;;;;;5.60;4.30;;;;;;;22.98;61.92;99200.33;214487;1265;60797;-73
2023/08/01 12:01:29;;;;;;;5.90;3.60;;;;;;;23.16;62.27;99198.93;215351;1256;72734;-73
2023/08/01 12:33:34;;;;;;;3.60;3.30;;;;;;;24.41;58.50;99148.30;213948;1270;74125;-74
2023/08/01 13:12:15;;;;;;;3.50;3.20;;;;;;;24.50;57.64;99112.95;213917;1268;60609;-73
2023/08/01 13:31:06;;;;;;;3.20;2.90;;;;;;;24.90;55.89;99099.31;214413;1262;72787;-74
2023/08/01 14:04:20;;;;;;;5.70;3.60;;;;;;;24.61;56.09;99061.09;215520;1254;73946;-73
2023/08/01 14:23:21;;;;;;;4.70;3.30;;;;;;;23.33;57.91;99042.58;211280;1285;65689;-74
2023/08/01 15:16:42;;;;;;;4.00;3.60;;;;;;;22.07;61.87;99016.78;212102;1271;60777;-73
2023/08/01 15:34:22;;;;;;;5.20;3.40;;;;;;;22.20;61.73;99007.06;211762;1279;74839;-74
2023/08/01 17:35:35;;;;;;;4.60;3.80;;;;;;;21.11;63.81;99056.62;213656;1277;59410;-74
2023/08/01 18:07:07;;;;;;;3.70;3.40;;;;;;;20.58;65.10;99077.29;215497;1267;60414;-73
2023/08/01 18:52:19;;;;;;;;;;;;;;;;;;;;;
2023/08/01 20:31:29;;;;;;;3.60;3.20;;;;;;;19.63;68.91;99156.30;215860;1264;59714;-74
2023/08/01 20:43:01;;;;;;;4.30;3.90;;;;;;;19.43;70.07;99169.14;214741;1272;73681;-72
2023/08/01 20:47:53;;;;;;;4.70;4.00;;;;;;;19.31;70.78;99176.50;214699;1269;59898;-74
2023/08/01 20:52:44;;;;;;;4.50;4.10;;;;;;;19.16;71.32;99179.80;215706;1257;59895;-73
2023/08/01 20:57:36;;;;;;;4.90;4.40;;;;;;;19.02;71.81;99180.24;217125;1251;59772;-73
2023/08/01 21:02:28;;;;;;;4.70;4.20;;;;;;;18.95;72.43;99184.56;218470;1248;66174;-73
2023/08/01 21:07:22;;;;;;;4.90;4.50;;;;;;;18.90;72.92;99186.33;220197;1240;60112;-73
2023/08/01 21:12:16;;;;;;;5.00;4.50;;;;;;;18.88;73.35;99197.33;220624;1242;59733;-73
2023/08/01 21:17:10;;;;;;;4.70;4.20;;;;;;;18.84;73.58;99198.70;220814;1231;72455;-74
2023/08/01 21:22:02;;;;;;;5.00;4.20;;;;;;;18.77;73.85;99198.77;221990;1231;60188;-73
2023/08/01 21:26:56;;;;;;;5.10;4.60;;;;;;;18.71;74.10;99197.60;221998;1231;59721;-73
2023/08/01 21:31:51;;;;;;;5.50;4.50;;;;;;;18.66;74.42;99199.20;221855;1231;59623;-73
2023/08/01 21:36:49;;;;;;;6.80;4.30;;;;;;;18.65;74.69;99199.24;222298;1231;71444;-73
2023/08/01 21:41:44;;;;;;;4.80;4.30;;;;;;;18.62;74.97;99198.48;222094;1231;73557;-73
2023/08/01 21:46:40;;;;;;;5.80;5.20;;;;;;;18.56;74.98;99202.09;222530;1231;60809;-73
2023/08/01 21:51:32;;;;;;;5.20;4.70;;;;;;;18.54;75.36;99203.75;222291;1231;59876;-73
2023/08/01 21:56:23;;;;;;;5.60;4.90;;;;;;;18.51;75.54;99203.66;222528;1234;59753;-73
2023/08/01 22:01:15;;;;;;;5.00;4.60;;;;;;;18.48;75.75;99202.22;222571;1234;65906;-73
2023/08/01 22:06:07;;;;;;;5.60;5.00;;;;;;;18.46;75.87;99200.39;222265;1230;59634;-73
2023/08/01 22:10:59;;;;;;;4.70;4.30;;;;;;;18.41;76.12;99183.73;222458;1234;59647;-73
2023/08/01 22:15:50;;;;;;;5.70;4.70;;;;;;;18.38;76.34;99185.25;222373;1234;59775;-73
2023/08/01 22:20:42;;;;;;;5.30;4.70;;;;;;;18.36;76.55;99185.48;222209;1229;59686;-73
2023/08/01 22:25:34;;;;;;;5.10;4.60;;;;;;;18.33;76.76;99183.36;222455;1231;60112;-73
2023/08/01 22:30:26;;;;;;;5.10;4.50;;;;;;;18.29;76.90;99194.00;222371;1231;72635;-73
2023/08/01 22:35:18;;;;;;;5.50;4.70;;;;;;;18.26;77.00;99195.18;222075;1230;59667;-73
2023/08/01 22:40:12;;;;;;;4.80;4.40;;;;;;;18.22;77.11;99199.71;222388;1231;59827;-73
2023/08/01 22:45:04;;;;;;;5.30;4.80;;;;;;;18.17;77.27;99206.04;222321;1231;73467;-73
2023/08/01 22:49:56;;;;;;;5.10;4.60;;;;;;;18.16;77.50;99201.69;222425;1231;59698;-73
2023/08/01 22:55:00;;;;;;;5.20;4.60;;;;;;;18.15;77.70;99199.13;222267;1235;66480;-73
2023/08/01 22:59:52;;;;;;;9.10;5.80;;;;;;;18.13;77.84;99206.88;222498;1231;59629;-73
2023/08/01 23:04:46;;;;;;;5.90;4.90;;;;;;;18.12;77.93;99215.71;222319;1231;59616;-73
2023/08/01 23:09:38;;;;;;;6.70;5.80;;;;;;;18.09;78.02;99221.77;222572;1232;59705;-73
2023/08/01 23:14:30;;;;;;;5.70;4.40;;;;;;;18.07;78.20;99224.84;222565;1231;60283;-73
2023/08/01 23:19:29;;;;;;;6.50;5.60;;;;;;;18.06;78.43;99225.59;222533;1231;59619;-73
2023/08/01 23:24:21;;;;;;;5.60;5.10;;;;;;;18.03;78.52;99219.91;222495;1231;60257;-73
2023/08/01 23:29:13;;;;;;;5.60;5.00;;;;;;;18.01;78.69;99224.70;222128;1231;59623;-73
2023/08/01 23:34:05;;;;;;;5.40;4.90;;;;;;;18.01;78.80;99223.86;222432;1231;59703;-74
2023/08/01 23:38:57;;;;;;;5.40;4.80;;;;;;;17.99;78.98;99225.48;222676;1230;59719;-73
2023/08/01 23:44:10;;;;;;;5.50;4.80;;;;;;;17.96;78.88;99236.14;222500;1230;73332;-74
2023/08/01 23:49:20;;;;;;;5.40;4.70;;;;;;;17.93;79.13;99237.10;222337;1231;59703;-74
2023/08/01 23:54:12;;;;;;;5.30;4.50;;;;;;;17.91;79.14;99233.66;222141;1232;59638;-74
2023/08/01 23:59:06;;;;;;;4.90;3.80;;;;;;;17.87;79.05;99241.73;222539;1232;59655;-74
